sensor_id;sensor_type;location;lat;lon;timestamp;P1;durP1;ratioP1;P2;durP2;ratioP2
74487;SDS011;63019;51.080;13.642;2024-01-30T00:01:01;25.20;;;9.25;;
74487;SDS011;63019;51.080;13.642;2024-01-30T00:02:03;27.75;;;10.23;;
74487;SDS011;63019;51.080;13.642;2024-01-30T00:03:06;31.23;;;10.97;;
74487;SDS011;63019;51.080;13.642;2024-01-30T00:04:08;27.98;;;11.10;;
74487;SDS011;63019;51.080;13.642;2024-01-30T00:05:10;26.70;;;10.00;;
74487;SDS011;63019;51.080;13.642;2024-01-30T00:06:12;24.02;;;10.07;;
74487;SDS011;63019;51.080;13.642;2024-01-30T00:07:17;29.50;;;10.85;;
74487;SDS011;63019;51.080;13.642;2024-01-30T00:08:19;21.73;;;9.18;;
74487;SDS011;63019;51.080;13.642;2024-01-30T00:09:22;25.02;;;10.18;;
74487;SDS011;63019;51.080;13.642;2024-01-30T00:10:24;25.45;;;9.68;;
74487;SDS011;63019;51.080;13.642;2024-01-30T00:11:26;26.08;;;9.85;;
74487;SDS011;63019;51.080;13.642;2024-01-30T00:12:30;28.65;;;10.82;;
74487;SDS011;63019;51.080;13.642;2024-01-30T00:13:33;29.13;;;10.63;;
74487;SDS011;63019;51.080;13.642;2024-01-30T00:14:35;28.63;;;10.10;;
74487;SDS011;63019;51.080;13.642;2024-01-30T00:15:39;27.48;;;9.68;;
74487;SDS011;63019;51.080;13.642;2024-01-30T00:16:41;25.80;;;10.48;;
74487;SDS011;63019;51.080;13.642;2024-01-30T00:17:43;26.75;;;10.52;;
74487;SDS011;63019;51.080;13.642;2024-01-30T00:18:46;27.20;;;10.10;;
74487;SDS011;63019;51.080;13.642;2024-01-30T00:19:49;22.80;;;10.35;;
74487;SDS011;63019;51.080;13.642;2024-01-30T00:20:51;27.90;;;10.02;;
74487;SDS011;63019;51.080;13.642;2024-01-30T00:21:55;29.02;;;11.15;;
74487;SDS011;63019;51.080;13.642;2024-01-30T00:22:58;24.25;;;9.88;;
74487;SDS011;63019;51.080;13.642;2024-01-30T00:24:00;25.27;;;10.37;;
74487;SDS011;63019;51.080;13.642;2024-01-30T00:25:02;32.20;;;10.90;;
74487;SDS011;63019;51.080;13.642;2024-01-30T00:26:07;25.65;;;10.35;;
74487;SDS011;63019;51.080;13.642;2024-01-30T00:27:09;32.30;;;10.68;;
74487;SDS011;63019;51.080;13.642;2024-01-30T00:28:11;26.60;;;10.23;;
74487;SDS011;63019;51.080;13.642;2024-01-30T00:29:14;27.25;;;9.80;;
74487;SDS011;63019;51.080;13.642;2024-01-30T00:30:21;23.38;;;10.15;;
74487;SDS011;63019;51.080;13.642;2024-01-30T00:31:23;26.42;;;10.88;;
74487;SDS011;63019;51.080;13.642;2024-01-30T00:32:26;28.08;;;11.02;;
74487;SDS011;63019;51.080;13.642;2024-01-30T00:33:28;29.20;;;10.60;;
74487;SDS011;63019;51.080;13.642;2024-01-30T00:34:31;28.23;;;10.47;;
74487;SDS011;63019;51.080;13.642;2024-01-30T00:35:34;26.70;;;11.07;;
74487;SDS011;63019;51.080;13.642;2024-01-30T00:36:36;24.33;;;10.63;;
74487;SDS011;63019;51.080;13.642;2024-01-30T00:37:39;26.10;;;10.93;;
74487;SDS011;63019;51.080;13.642;2024-01-30T00:38:41;23.63;;;10.00;;
74487;SDS011;63019;51.080;13.642;2024-01-30T00:39:44;26.58;;;10.48;;
74487;SDS011;63019;51.080;13.642;2024-01-30T00:40:46;21.85;;;9.50;;
74487;SDS011;63019;51.080;13.642;2024-01-30T00:41:48;21.85;;;9.95;;
74487;SDS011;63019;51.080;13.642;2024-01-30T00:42:51;24.92;;;10.23;;
74487;SDS011;63019;51.080;13.642;2024-01-30T00:43:53;25.48;;;10.07;;
74487;SDS011;63019;51.080;13.642;2024-01-30T00:44:56;24.33;;;10.03;;
74487;SDS011;63019;51.080;13.642;2024-01-30T00:45:58;24.77;;;9.45;;
74487;SDS011;63019;51.080;13.642;2024-01-30T00:47:02;28.08;;;10.45;;
74487;SDS011;63019;51.080;13.642;2024-01-30T00:48:04;25.33;;;10.13;;
74487;SDS011;63019;51.080;13.642;2024-01-30T00:49:07;29.48;;;10.60;;
74487;SDS011;63019;51.080;13.642;2024-01-30T00:50:11;23.33;;;10.27;;
74487;SDS011;63019;51.080;13.642;2024-01-30T00:51:14;27.20;;;10.60;;
74487;SDS011;63019;51.080;13.642;2024-01-30T00:52:16;27.52;;;11.13;;
74487;SDS011;63019;51.080;13.642;2024-01-30T00:53:19;27.30;;;10.02;;
74487;SDS011;63019;51.080;13.642;2024-01-30T00:54:24;25.83;;;10.35;;
74487;SDS011;63019;51.080;13.642;2024-01-30T00:55:26;24.10;;;9.40;;
74487;SDS011;63019;51.080;13.642;2024-01-30T00:56:29;21.17;;;10.23;;
74487;SDS011;63019;51.080;13.642;2024-01-30T00:57:33;25.02;;;10.27;;
74487;SDS011;63019;51.080;13.642;2024-01-30T00:58:36;24.70;;;10.57;;
74487;SDS011;63019;51.080;13.642;2024-01-30T00:59:38;24.45;;;10.27;;
74487;SDS011;63019;51.080;13.642;2024-01-30T01:00:40;28.40;;;10.90;;
74487;SDS011;63019;51.080;13.642;2024-01-30T01:01:43;24.67;;;9.70;;
74487;SDS011;63019;51.080;13.642;2024-01-30T01:02:45;27.65;;;9.63;;
74487;SDS011;63019;51.080;13.642;2024-01-30T01:03:47;28.67;;;11.18;;
74487;SDS011;63019;51.080;13.642;2024-01-30T01:04:50;28.17;;;10.82;;
74487;SDS011;63019;51.080;13.642;2024-01-30T01:05:52;26.43;;;10.97;;
74487;SDS011;63019;51.080;13.642;2024-01-30T01:06:56;25.17;;;9.68;;
74487;SDS011;63019;51.080;13.642;2024-01-30T01:07:58;27.13;;;10.10;;
74487;SDS011;63019;51.080;13.642;2024-01-30T01:09:00;24.45;;;9.68;;
74487;SDS011;63019;51.080;13.642;2024-01-30T01:10:06;22.08;;;9.75;;
74487;SDS011;63019;51.080;13.642;2024-01-30T01:11:08;23.67;;;10.32;;
74487;SDS011;63019;51.080;13.642;2024-01-30T01:12:12;27.58;;;10.25;;
74487;SDS011;63019;51.080;13.642;2024-01-30T01:13:14;25.48;;;10.30;;
74487;SDS011;63019;51.080;13.642;2024-01-30T01:14:17;29.75;;;10.13;;
74487;SDS011;63019;51.080;13.642;2024-01-30T01:15:19;27.17;;;9.93;;
74487;SDS011;63019;51.080;13.642;2024-01-30T01:16:22;25.60;;;9.77;;
74487;SDS011;63019;51.080;13.642;2024-01-30T01:17:24;20.92;;;9.48;;
74487;SDS011;63019;51.080;13.642;2024-01-30T01:18:27;25.05;;;8.85;;
74487;SDS011;63019;51.080;13.642;2024-01-30T01:19:29;24.13;;;10.57;;
74487;SDS011;63019;51.080;13.642;2024-01-30T01:20:32;22.75;;;9.52;;
74487;SDS011;63019;51.080;13.642;2024-01-30T01:21:34;22.83;;;9.48;;
74487;SDS011;63019;51.080;13.642;2024-01-30T01:22:37;26.00;;;9.73;;
74487;SDS011;63019;51.080;13.642;2024-01-30T01:23:40;20.60;;;9.82;;
74487;SDS011;63019;51.080;13.642;2024-01-30T01:24:42;19.73;;;9.32;;
74487;SDS011;63019;51.080;13.642;2024-01-30T01:25:45;27.67;;;9.35;;
74487;SDS011;63019;51.080;13.642;2024-01-30T01:26:47;22.33;;;9.73;;
74487;SDS011;63019;51.080;13.642;2024-01-30T01:27:50;19.35;;;9.10;;
74487;SDS011;63019;51.080;13.642;2024-01-30T01:28:56;25.45;;;10.13;;
74487;SDS011;63019;51.080;13.642;2024-01-30T01:29:58;22.30;;;9.75;;
74487;SDS011;63019;51.080;13.642;2024-01-30T01:31:00;27.00;;;10.00;;
74487;SDS011;63019;51.080;13.642;2024-01-30T01:32:07;21.85;;;9.85;;
74487;SDS011;63019;51.080;13.642;2024-01-30T01:33:09;22.80;;;9.05;;
74487;SDS011;63019;51.080;13.642;2024-01-30T01:34:12;21.55;;;9.25;;
74487;SDS011;63019;51.080;13.642;2024-01-30T01:35:15;23.92;;;9.52;;
74487;SDS011;63019;51.080;13.642;2024-01-30T01:36:17;23.05;;;8.85;;
74487;SDS011;63019;51.080;13.642;2024-01-30T01:37:19;26.23;;;9.40;;
74487;SDS011;63019;51.080;13.642;2024-01-30T01:38:23;20.50;;;9.00;;
74487;SDS011;63019;51.080;13.642;2024-01-30T01:39:26;24.92;;;9.38;;
74487;SDS011;63019;51.080;13.642;2024-01-30T01:40:29;23.55;;;9.45;;
74487;SDS011;63019;51.080;13.642;2024-01-30T01:41:31;20.73;;;8.70;;
74487;SDS011;63019;51.080;13.642;2024-01-30T01:42:34;22.80;;;8.95;;
74487;SDS011;63019;51.080;13.642;2024-01-30T01:43:37;22.40;;;9.25;;
74487;SDS011;63019;51.080;13.642;2024-01-30T01:44:42;22.73;;;9.25;;
74487;SDS011;63019;51.080;13.642;2024-01-30T01:45:45;25.65;;;9.48;;
74487;SDS011;63019;51.080;13.642;2024-01-30T01:46:47;23.17;;;9.07;;
74487;SDS011;63019;51.080;13.642;2024-01-30T01:47:50;21.63;;;9.10;;
74487;SDS011;63019;51.080;13.642;2024-01-30T01:48:54;25.10;;;8.98;;
74487;SDS011;63019;51.080;13.642;2024-01-30T01:49:57;22.33;;;8.90;;
74487;SDS011;63019;51.080;13.642;2024-01-30T01:51:00;24.15;;;9.18;;
74487;SDS011;63019;51.080;13.642;2024-01-30T01:52:03;20.98;;;9.45;;
74487;SDS011;63019;51.080;13.642;2024-01-30T01:53:09;21.02;;;8.75;;
74487;SDS011;63019;51.080;13.642;2024-01-30T01:54:12;22.77;;;9.15;;
74487;SDS011;63019;51.080;13.642;2024-01-30T01:55:16;25.80;;;9.30;;
74487;SDS011;63019;51.080;13.642;2024-01-30T01:56:20;19.30;;;8.32;;
74487;SDS011;63019;51.080;13.642;2024-01-30T01:57:23;20.95;;;9.10;;
74487;SDS011;63019;51.080;13.642;2024-01-30T01:58:26;22.60;;;9.20;;
74487;SDS011;63019;51.080;13.642;2024-01-30T01:59:31;25.67;;;8.60;;
74487;SDS011;63019;51.080;13.642;2024-01-30T02:00:33;23.15;;;8.82;;
74487;SDS011;63019;51.080;13.642;2024-01-30T02:01:37;24.13;;;9.43;;
74487;SDS011;63019;51.080;13.642;2024-01-30T02:02:40;19.33;;;8.25;;
74487;SDS011;63019;51.080;13.642;2024-01-30T02:03:48;23.52;;;9.30;;
74487;SDS011;63019;51.080;13.642;2024-01-30T02:04:50;22.15;;;8.52;;
74487;SDS011;63019;51.080;13.642;2024-01-30T02:05:53;20.95;;;8.93;;
74487;SDS011;63019;51.080;13.642;2024-01-30T02:06:59;21.40;;;8.45;;
74487;SDS011;63019;51.080;13.642;2024-01-30T02:08:01;21.45;;;8.23;;
74487;SDS011;63019;51.080;13.642;2024-01-30T02:09:04;22.97;;;8.43;;
74487;SDS011;63019;51.080;13.642;2024-01-30T02:10:07;22.92;;;8.25;;
74487;SDS011;63019;51.080;13.642;2024-01-30T02:11:11;22.58;;;8.25;;
74487;SDS011;63019;51.080;13.642;2024-01-30T02:12:14;24.85;;;8.00;;
74487;SDS011;63019;51.080;13.642;2024-01-30T02:13:20;18.98;;;8.82;;
74487;SDS011;63019;51.080;13.642;2024-01-30T02:14:23;24.45;;;9.63;;
74487;SDS011;63019;51.080;13.642;2024-01-30T02:15:28;17.48;;;8.02;;
74487;SDS011;63019;51.080;13.642;2024-01-30T02:16:31;18.48;;;8.27;;
74487;SDS011;63019;51.080;13.642;2024-01-30T02:17:34;23.73;;;9.00;;
74487;SDS011;63019;51.080;13.642;2024-01-30T02:18:36;20.30;;;8.45;;
74487;SDS011;63019;51.080;13.642;2024-01-30T02:19:43;23.07;;;8.37;;
74487;SDS011;63019;51.080;13.642;2024-01-30T02:20:46;24.33;;;9.55;;
74487;SDS011;63019;51.080;13.642;2024-01-30T02:21:49;20.77;;;8.63;;
74487;SDS011;63019;51.080;13.642;2024-01-30T02:22:55;19.65;;;8.38;;
74487;SDS011;63019;51.080;13.642;2024-01-30T02:24:00;19.15;;;7.82;;
74487;SDS011;63019;51.080;13.642;2024-01-30T02:25:04;19.17;;;7.32;;
74487;SDS011;63019;51.080;13.642;2024-01-30T02:26:06;21.25;;;8.15;;
74487;SDS011;63019;51.080;13.642;2024-01-30T02:27:09;21.13;;;8.85;;
74487;SDS011;63019;51.080;13.642;2024-01-30T02:28:11;21.15;;;8.32;;
74487;SDS011;63019;51.080;13.642;2024-01-30T02:29:14;22.58;;;8.80;;
74487;SDS011;63019;51.080;13.642;2024-01-30T02:30:17;20.37;;;8.63;;
74487;SDS011;63019;51.080;13.642;2024-01-30T02:31:20;18.98;;;8.50;;
74487;SDS011;63019;51.080;13.642;2024-01-30T02:32:23;21.67;;;8.32;;
74487;SDS011;63019;51.080;13.642;2024-01-30T02:33:26;17.75;;;7.93;;
74487;SDS011;63019;51.080;13.642;2024-01-30T02:34:28;23.33;;;8.05;;
74487;SDS011;63019;51.080;13.642;2024-01-30T02:35:31;20.45;;;8.45;;
74487;SDS011;63019;51.080;13.642;2024-01-30T02:36:33;19.48;;;7.97;;
74487;SDS011;63019;51.080;13.642;2024-01-30T02:37:36;23.00;;;9.20;;
74487;SDS011;63019;51.080;13.642;2024-01-30T02:38:38;23.73;;;8.68;;
74487;SDS011;63019;51.080;13.642;2024-01-30T02:39:40;22.02;;;8.88;;
74487;SDS011;63019;51.080;13.642;2024-01-30T02:40:42;24.40;;;8.63;;
74487;SDS011;63019;51.080;13.642;2024-01-30T02:41:45;22.95;;;9.13;;
74487;SDS011;63019;51.080;13.642;2024-01-30T02:42:47;18.45;;;8.27;;
74487;SDS011;63019;51.080;13.642;2024-01-30T02:43:49;20.75;;;8.55;;
74487;SDS011;63019;51.080;13.642;2024-01-30T02:44:52;22.83;;;8.65;;
74487;SDS011;63019;51.080;13.642;2024-01-30T02:45:54;21.27;;;8.27;;
74487;SDS011;63019;51.080;13.642;2024-01-30T02:46:57;20.20;;;8.20;;
74487;SDS011;63019;51.080;13.642;2024-01-30T02:47:59;19.27;;;8.98;;
74487;SDS011;63019;51.080;13.642;2024-01-30T02:49:01;22.75;;;8.52;;
74487;SDS011;63019;51.080;13.642;2024-01-30T02:50:04;30.17;;;8.50;;
74487;SDS011;63019;51.080;13.642;2024-01-30T02:51:07;15.00;;;8.17;;
74487;SDS011;63019;51.080;13.642;2024-01-30T02:52:09;22.95;;;8.80;;
74487;SDS011;63019;51.080;13.642;2024-01-30T02:53:11;21.30;;;8.65;;
74487;SDS011;63019;51.080;13.642;2024-01-30T02:54:14;21.92;;;8.93;;
74487;SDS011;63019;51.080;13.642;2024-01-30T02:55:16;24.90;;;8.85;;
74487;SDS011;63019;51.080;13.642;2024-01-30T02:56:20;22.50;;;8.80;;
74487;SDS011;63019;51.080;13.642;2024-01-30T02:57:23;20.48;;;8.50;;
74487;SDS011;63019;51.080;13.642;2024-01-30T02:58:26;20.95;;;8.63;;
74487;SDS011;63019;51.080;13.642;2024-01-30T02:59:31;21.20;;;9.07;;
74487;SDS011;63019;51.080;13.642;2024-01-30T03:00:37;18.48;;;8.32;;
74487;SDS011;63019;51.080;13.642;2024-01-30T03:01:43;20.57;;;8.50;;
74487;SDS011;63019;51.080;13.642;2024-01-30T03:02:46;24.55;;;9.27;;
74487;SDS011;63019;51.080;13.642;2024-01-30T03:03:48;21.52;;;8.23;;
74487;SDS011;63019;51.080;13.642;2024-01-30T03:04:50;18.70;;;9.10;;
74487;SDS011;63019;51.080;13.642;2024-01-30T03:05:53;19.85;;;8.80;;
74487;SDS011;63019;51.080;13.642;2024-01-30T03:06:55;21.23;;;8.85;;
74487;SDS011;63019;51.080;13.642;2024-01-30T03:07:58;21.65;;;8.18;;
74487;SDS011;63019;51.080;13.642;2024-01-30T03:09:03;22.60;;;8.43;;
74487;SDS011;63019;51.080;13.642;2024-01-30T03:10:06;17.95;;;8.05;;
74487;SDS011;63019;51.080;13.642;2024-01-30T03:11:09;20.15;;;8.27;;
74487;SDS011;63019;51.080;13.642;2024-01-30T03:12:11;21.60;;;9.00;;
74487;SDS011;63019;51.080;13.642;2024-01-30T03:13:13;17.73;;;7.70;;
74487;SDS011;63019;51.080;13.642;2024-01-30T03:14:16;18.50;;;8.55;;
74487;SDS011;63019;51.080;13.642;2024-01-30T03:15:18;21.83;;;9.10;;
74487;SDS011;63019;51.080;13.642;2024-01-30T03:16:20;22.50;;;8.25;;
74487;SDS011;63019;51.080;13.642;2024-01-30T03:17:23;22.02;;;8.80;;
74487;SDS011;63019;51.080;13.642;2024-01-30T03:18:25;22.55;;;9.05;;
74487;SDS011;63019;51.080;13.642;2024-01-30T03:19:28;20.95;;;8.50;;
74487;SDS011;63019;51.080;13.642;2024-01-30T03:20:30;27.90;;;9.50;;
74487;SDS011;63019;51.080;13.642;2024-01-30T03:21:33;22.92;;;8.52;;
74487;SDS011;63019;51.080;13.642;2024-01-30T03:22:36;20.80;;;8.63;;
74487;SDS011;63019;51.080;13.642;2024-01-30T03:23:39;20.95;;;8.07;;
74487;SDS011;63019;51.080;13.642;2024-01-30T03:24:41;24.48;;;8.73;;
74487;SDS011;63019;51.080;13.642;2024-01-30T03:25:43;20.58;;;9.05;;
74487;SDS011;63019;51.080;13.642;2024-01-30T03:26:46;24.15;;;9.13;;
74487;SDS011;63019;51.080;13.642;2024-01-30T03:27:48;24.13;;;8.90;;
74487;SDS011;63019;51.080;13.642;2024-01-30T03:28:51;24.73;;;9.20;;
74487;SDS011;63019;51.080;13.642;2024-01-30T03:29:53;26.08;;;9.45;;
74487;SDS011;63019;51.080;13.642;2024-01-30T03:30:55;19.27;;;8.82;;
74487;SDS011;63019;51.080;13.642;2024-01-30T03:31:58;19.35;;;8.32;;
74487;SDS011;63019;51.080;13.642;2024-01-30T03:33:00;28.70;;;9.47;;
74487;SDS011;63019;51.080;13.642;2024-01-30T03:34:03;24.98;;;8.73;;
74487;SDS011;63019;51.080;13.642;2024-01-30T03:35:05;22.42;;;8.52;;
74487;SDS011;63019;51.080;13.642;2024-01-30T03:36:08;22.92;;;9.57;;
74487;SDS011;63019;51.080;13.642;2024-01-30T03:37:11;24.33;;;8.82;;
74487;SDS011;63019;51.080;13.642;2024-01-30T03:38:13;22.63;;;9.48;;
74487;SDS011;63019;51.080;13.642;2024-01-30T03:39:15;22.48;;;8.43;;
74487;SDS011;63019;51.080;13.642;2024-01-30T03:40:18;20.42;;;8.77;;
74487;SDS011;63019;51.080;13.642;2024-01-30T03:41:22;20.23;;;8.23;;
74487;SDS011;63019;51.080;13.642;2024-01-30T03:42:24;22.25;;;8.90;;
74487;SDS011;63019;51.080;13.642;2024-01-30T03:43:27;19.57;;;8.83;;
74487;SDS011;63019;51.080;13.642;2024-01-30T03:44:29;21.95;;;8.55;;
74487;SDS011;63019;51.080;13.642;2024-01-30T03:45:33;24.17;;;9.32;;
74487;SDS011;63019;51.080;13.642;2024-01-30T03:46:35;26.92;;;9.05;;
74487;SDS011;63019;51.080;13.642;2024-01-30T03:47:38;24.00;;;9.75;;
74487;SDS011;63019;51.080;13.642;2024-01-30T03:48:40;23.38;;;8.50;;
74487;SDS011;63019;51.080;13.642;2024-01-30T03:49:42;22.50;;;8.73;;
74487;SDS011;63019;51.080;13.642;2024-01-30T03:50:45;22.05;;;8.60;;
74487;SDS011;63019;51.080;13.642;2024-01-30T03:51:47;18.65;;;8.82;;
74487;SDS011;63019;51.080;13.642;2024-01-30T03:52:49;24.13;;;8.25;;
74487;SDS011;63019;51.080;13.642;2024-01-30T03:53:52;19.03;;;8.80;;
74487;SDS011;63019;51.080;13.642;2024-01-30T03:54:54;23.02;;;8.60;;
74487;SDS011;63019;51.080;13.642;2024-01-30T03:55:57;19.00;;;8.13;;
74487;SDS011;63019;51.080;13.642;2024-01-30T03:56:59;21.30;;;8.75;;
74487;SDS011;63019;51.080;13.642;2024-01-30T03:58:01;22.75;;;8.32;;
74487;SDS011;63019;51.080;13.642;2024-01-30T03:59:04;23.65;;;9.27;;
74487;SDS011;63019;51.080;13.642;2024-01-30T04:00:06;24.77;;;9.25;;
74487;SDS011;63019;51.080;13.642;2024-01-30T04:01:13;22.83;;;9.10;;
74487;SDS011;63019;51.080;13.642;2024-01-30T04:02:16;23.98;;;9.00;;
74487;SDS011;63019;51.080;13.642;2024-01-30T04:03:19;24.65;;;9.60;;
74487;SDS011;63019;51.080;13.642;2024-01-30T04:04:22;22.77;;;9.67;;
74487;SDS011;63019;51.080;13.642;2024-01-30T04:05:24;24.38;;;8.77;;
74487;SDS011;63019;51.080;13.642;2024-01-30T04:06:27;21.60;;;8.88;;
74487;SDS011;63019;51.080;13.642;2024-01-30T04:07:29;23.70;;;8.98;;
74487;SDS011;63019;51.080;13.642;2024-01-30T04:08:33;24.17;;;8.75;;
74487;SDS011;63019;51.080;13.642;2024-01-30T04:09:36;23.25;;;9.50;;
74487;SDS011;63019;51.080;13.642;2024-01-30T04:10:39;23.95;;;9.13;;
74487;SDS011;63019;51.080;13.642;2024-01-30T04:11:42;23.88;;;8.75;;
74487;SDS011;63019;51.080;13.642;2024-01-30T04:12:44;23.77;;;9.02;;
74487;SDS011;63019;51.080;13.642;2024-01-30T04:13:46;22.92;;;9.23;;
74487;SDS011;63019;51.080;13.642;2024-01-30T04:14:50;21.47;;;9.33;;
74487;SDS011;63019;51.080;13.642;2024-01-30T04:15:52;23.27;;;9.07;;
74487;SDS011;63019;51.080;13.642;2024-01-30T04:16:56;20.30;;;8.75;;
74487;SDS011;63019;51.080;13.642;2024-01-30T04:17:58;24.13;;;8.55;;
74487;SDS011;63019;51.080;13.642;2024-01-30T04:19:00;21.70;;;8.88;;
74487;SDS011;63019;51.080;13.642;2024-01-30T04:20:03;24.10;;;9.77;;
74487;SDS011;63019;51.080;13.642;2024-01-30T04:21:06;24.50;;;9.30;;
74487;SDS011;63019;51.080;13.642;2024-01-30T04:22:10;25.05;;;9.55;;
74487;SDS011;63019;51.080;13.642;2024-01-30T04:23:13;20.80;;;8.23;;
74487;SDS011;63019;51.080;13.642;2024-01-30T04:24:15;22.60;;;9.38;;
74487;SDS011;63019;51.080;13.642;2024-01-30T04:25:20;22.87;;;9.43;;
74487;SDS011;63019;51.080;13.642;2024-01-30T04:26:22;23.83;;;9.52;;
74487;SDS011;63019;51.080;13.642;2024-01-30T04:27:26;21.65;;;8.50;;
74487;SDS011;63019;51.080;13.642;2024-01-30T04:28:31;22.63;;;9.10;;
74487;SDS011;63019;51.080;13.642;2024-01-30T04:29:34;20.20;;;9.32;;
74487;SDS011;63019;51.080;13.642;2024-01-30T04:30:36;22.30;;;9.20;;
74487;SDS011;63019;51.080;13.642;2024-01-30T04:31:41;19.27;;;8.63;;
74487;SDS011;63019;51.080;13.642;2024-01-30T04:32:43;25.13;;;9.32;;
74487;SDS011;63019;51.080;13.642;2024-01-30T04:33:45;23.55;;;9.02;;
74487;SDS011;63019;51.080;13.642;2024-01-30T04:34:48;28.58;;;13.32;;
74487;SDS011;63019;51.080;13.642;2024-01-30T04:35:51;18.73;;;8.63;;
74487;SDS011;63019;51.080;13.642;2024-01-30T04:36:53;25.73;;;10.15;;
74487;SDS011;63019;51.080;13.642;2024-01-30T04:37:58;23.17;;;9.30;;
74487;SDS011;63019;51.080;13.642;2024-01-30T04:39:00;26.55;;;9.55;;
74487;SDS011;63019;51.080;13.642;2024-01-30T04:40:02;22.02;;;9.00;;
74487;SDS011;63019;51.080;13.642;2024-01-30T04:41:05;22.17;;;9.27;;
74487;SDS011;63019;51.080;13.642;2024-01-30T04:42:09;26.23;;;10.13;;
74487;SDS011;63019;51.080;13.642;2024-01-30T04:43:11;25.25;;;10.02;;
74487;SDS011;63019;51.080;13.642;2024-01-30T04:44:13;23.95;;;9.05;;
74487;SDS011;63019;51.080;13.642;2024-01-30T04:45:16;19.20;;;8.48;;
74487;SDS011;63019;51.080;13.642;2024-01-30T04:46:18;24.13;;;9.70;;
74487;SDS011;63019;51.080;13.642;2024-01-30T04:47:20;27.98;;;9.98;;
74487;SDS011;63019;51.080;13.642;2024-01-30T04:48:23;22.05;;;9.30;;
74487;SDS011;63019;51.080;13.642;2024-01-30T04:49:25;20.30;;;9.23;;
74487;SDS011;63019;51.080;13.642;2024-01-30T04:50:27;24.10;;;9.43;;
74487;SDS011;63019;51.080;13.642;2024-01-30T04:51:30;25.20;;;9.38;;
74487;SDS011;63019;51.080;13.642;2024-01-30T04:52:33;20.73;;;8.55;;
74487;SDS011;63019;51.080;13.642;2024-01-30T04:53:36;23.30;;;9.20;;
74487;SDS011;63019;51.080;13.642;2024-01-30T04:54:38;26.05;;;9.90;;
74487;SDS011;63019;51.080;13.642;2024-01-30T04:55:41;27.30;;;9.25;;
74487;SDS011;63019;51.080;13.642;2024-01-30T04:56:43;28.57;;;9.47;;
74487;SDS011;63019;51.080;13.642;2024-01-30T04:57:49;25.40;;;9.20;;
74487;SDS011;63019;51.080;13.642;2024-01-30T04:58:52;24.42;;;9.18;;
74487;SDS011;63019;51.080;13.642;2024-01-30T04:59:54;23.55;;;9.82;;
74487;SDS011;63019;51.080;13.642;2024-01-30T05:00:56;23.92;;;9.20;;
74487;SDS011;63019;51.080;13.642;2024-01-30T05:01:59;28.38;;;9.65;;
74487;SDS011;63019;51.080;13.642;2024-01-30T05:03:03;28.63;;;8.98;;
74487;SDS011;63019;51.080;13.642;2024-01-30T05:04:08;24.40;;;9.45;;
74487;SDS011;63019;51.080;13.642;2024-01-30T05:05:17;23.23;;;9.23;;
74487;SDS011;63019;51.080;13.642;2024-01-30T05:06:25;23.63;;;9.13;;
74487;SDS011;63019;51.080;13.642;2024-01-30T05:07:29;21.27;;;8.70;;
74487;SDS011;63019;51.080;13.642;2024-01-30T05:08:32;24.88;;;8.88;;
74487;SDS011;63019;51.080;13.642;2024-01-30T05:09:34;22.85;;;9.30;;
74487;SDS011;63019;51.080;13.642;2024-01-30T05:10:36;24.88;;;9.57;;
74487;SDS011;63019;51.080;13.642;2024-01-30T05:11:40;23.15;;;9.35;;
74487;SDS011;63019;51.080;13.642;2024-01-30T05:12:42;25.55;;;9.98;;
74487;SDS011;63019;51.080;13.642;2024-01-30T05:13:45;22.67;;;9.27;;
74487;SDS011;63019;51.080;13.642;2024-01-30T05:14:47;24.42;;;9.50;;
74487;SDS011;63019;51.080;13.642;2024-01-30T05:15:49;26.08;;;10.00;;
74487;SDS011;63019;51.080;13.642;2024-01-30T05:16:52;25.85;;;10.07;;
74487;SDS011;63019;51.080;13.642;2024-01-30T05:17:54;25.47;;;9.60;;
74487;SDS011;63019;51.080;13.642;2024-01-30T05:18:57;28.98;;;9.85;;
74487;SDS011;63019;51.080;13.642;2024-01-30T05:20:03;27.17;;;9.68;;
74487;SDS011;63019;51.080;13.642;2024-01-30T05:21:06;25.73;;;9.95;;
74487;SDS011;63019;51.080;13.642;2024-01-30T05:22:09;26.02;;;9.30;;
74487;SDS011;63019;51.080;13.642;2024-01-30T05:23:11;27.83;;;9.02;;
74487;SDS011;63019;51.080;13.642;2024-01-30T05:24:13;31.63;;;9.60;;
74487;SDS011;63019;51.080;13.642;2024-01-30T05:25:15;20.30;;;8.60;;
74487;SDS011;63019;51.080;13.642;2024-01-30T05:26:18;23.08;;;9.43;;
74487;SDS011;63019;51.080;13.642;2024-01-30T05:27:20;21.10;;;8.48;;
74487;SDS011;63019;51.080;13.642;2024-01-30T05:28:22;22.87;;;9.80;;
74487;SDS011;63019;51.080;13.642;2024-01-30T05:29:25;23.95;;;9.70;;
74487;SDS011;63019;51.080;13.642;2024-01-30T05:30:28;23.48;;;9.32;;
74487;SDS011;63019;51.080;13.642;2024-01-30T05:31:31;23.20;;;9.55;;
74487;SDS011;63019;51.080;13.642;2024-01-30T05:32:33;23.52;;;9.43;;
74487;SDS011;63019;51.080;13.642;2024-01-30T05:33:36;26.10;;;9.32;;
74487;SDS011;63019;51.080;13.642;2024-01-30T05:34:39;26.77;;;9.82;;
74487;SDS011;63019;51.080;13.642;2024-01-30T05:35:41;22.88;;;9.48;;
74487;SDS011;63019;51.080;13.642;2024-01-30T05:36:43;24.88;;;9.25;;
74487;SDS011;63019;51.080;13.642;2024-01-30T05:37:46;22.65;;;10.38;;
74487;SDS011;63019;51.080;13.642;2024-01-30T05:38:50;31.50;;;10.57;;
74487;SDS011;63019;51.080;13.642;2024-01-30T05:39:52;23.30;;;10.13;;
74487;SDS011;63019;51.080;13.642;2024-01-30T05:40:55;30.42;;;10.48;;
74487;SDS011;63019;51.080;13.642;2024-01-30T05:41:59;25.40;;;9.77;;
74487;SDS011;63019;51.080;13.642;2024-01-30T05:43:05;23.73;;;9.65;;
74487;SDS011;63019;51.080;13.642;2024-01-30T05:44:09;24.52;;;9.20;;
74487;SDS011;63019;51.080;13.642;2024-01-30T05:45:11;24.88;;;9.52;;
74487;SDS011;63019;51.080;13.642;2024-01-30T05:46:13;22.48;;;9.15;;
74487;SDS011;63019;51.080;13.642;2024-01-30T05:47:16;20.80;;;9.25;;
74487;SDS011;63019;51.080;13.642;2024-01-30T05:48:18;23.63;;;9.95;;
74487;SDS011;63019;51.080;13.642;2024-01-30T05:49:21;27.90;;;9.73;;
74487;SDS011;63019;51.080;13.642;2024-01-30T05:50:23;22.05;;;9.77;;
74487;SDS011;63019;51.080;13.642;2024-01-30T05:51:27;22.23;;;9.10;;
74487;SDS011;63019;51.080;13.642;2024-01-30T05:52:31;25.45;;;9.43;;
74487;SDS011;63019;51.080;13.642;2024-01-30T05:53:33;21.30;;;8.80;;
74487;SDS011;63019;51.080;13.642;2024-01-30T05:54:36;23.75;;;9.32;;
74487;SDS011;63019;51.080;13.642;2024-01-30T05:55:38;23.67;;;9.50;;
74487;SDS011;63019;51.080;13.642;2024-01-30T05:56:41;23.30;;;9.75;;
74487;SDS011;63019;51.080;13.642;2024-01-30T05:57:43;23.10;;;9.35;;
74487;SDS011;63019;51.080;13.642;2024-01-30T05:58:46;21.23;;;9.02;;
74487;SDS011;63019;51.080;13.642;2024-01-30T05:59:48;22.53;;;9.13;;
74487;SDS011;63019;51.080;13.642;2024-01-30T06:00:53;26.67;;;9.15;;
74487;SDS011;63019;51.080;13.642;2024-01-30T06:01:55;26.83;;;9.88;;
74487;SDS011;63019;51.080;13.642;2024-01-30T06:02:58;22.95;;;9.40;;
74487;SDS011;63019;51.080;13.642;2024-01-30T06:04:00;22.50;;;9.52;;
74487;SDS011;63019;51.080;13.642;2024-01-30T06:05:03;23.40;;;9.90;;
74487;SDS011;63019;51.080;13.642;2024-01-30T06:06:05;21.17;;;9.40;;
74487;SDS011;63019;51.080;13.642;2024-01-30T06:07:08;27.77;;;9.85;;